createdAt,value
2018-02-17T00:00:31.211Z,98845.98
2018-02-17T00:02:58.792Z,98849.14
2018-02-17T00:05:26.643Z,98848.31
2018-02-17T00:07:54.185Z,98842.84
2018-02-17T00:10:21.834Z,98840.98
2018-02-17T00:12:49.555Z,98844.98
2018-02-17T00:15:17.107Z,98841.91
2018-02-17T00:17:45.119Z,98844.56
2018-02-17T00:20:12.841Z,98840.17
2018-02-17T00:22:40.697Z,98829.95
2018-02-17T00:25:08.443Z,98818.83
2018-02-17T00:27:36.005Z,98811.78
2018-02-17T00:30:03.721Z,98805.69
2018-02-17T00:32:31.319Z,98809.58
2018-02-17T00:34:59.651Z,98805.48
2018-02-17T00:37:27.168Z,98808.56
2018-02-17T00:39:55.011Z,98815.90
2018-02-17T00:42:22.732Z,98814.70
2018-02-17T00:44:50.489Z,98814.67
2018-02-17T00:47:18.162Z,98803.44
2018-02-17T00:49:45.796Z,98801.61
2018-02-17T00:52:14.301Z,98786.91
2018-02-17T00:54:42.068Z,98781.41
2018-02-17T00:57:10.495Z,98786.50
2018-02-17T00:59:38.163Z,98779.47
2018-02-17T01:02:05.721Z,98774.16
2018-02-17T01:04:33.633Z,98766.17
2018-02-17T01:07:01.257Z,98759.51
2018-02-17T01:09:29.197Z,98758.56
2018-02-17T01:11:56.747Z,98757.64
2018-02-17T01:14:24.289Z,98751.76
2018-02-17T01:16:51.861Z,98746.09
2018-02-17T01:19:19.536Z,98754.31
2018-02-17T01:21:47.236Z,98754.31
2018-02-17T01:24:14.948Z,98751.83
2018-02-17T01:26:42.636Z,98742.34
2018-02-17T01:29:10.521Z,98732.45
2018-02-17T01:31:38.421Z,98724.66
2018-02-17T01:34:06.007Z,98709.30
2018-02-17T01:36:33.662Z,98713.37
2018-02-17T01:39:01.214Z,98698.94
2018-02-17T01:41:28.749Z,98692.91
2018-02-17T01:43:56.438Z,98686.11
2018-02-17T01:46:24.369Z,98689.08
2018-02-17T01:48:51.989Z,98683.52
2018-02-17T01:51:19.696Z,98669.33
2018-02-17T01:53:47.698Z,98658.91
2018-02-17T01:56:15.355Z,98646.52
2018-02-17T01:58:43.337Z,98642.54
2018-02-17T02:01:11.249Z,98629.86
2018-02-17T02:03:39.078Z,98623.97
2018-02-17T02:06:06.723Z,98621.09
2018-02-17T02:08:34.273Z,98631.17
2018-02-17T02:11:02.174Z,98635.24
2018-02-17T02:13:29.847Z,98635.77
2018-02-17T02:15:57.613Z,98638.48
2018-02-17T02:18:25.156Z,98622.73
2018-02-17T02:20:52.684Z,98621.53
2018-02-17T02:23:21.052Z,98614.01
2018-02-17T02:25:48.720Z,98606.11
2018-02-17T02:28:16.646Z,98601.53
2018-02-17T02:30:44.292Z,98614.09
2018-02-17T02:33:11.908Z,98615.17
2018-02-17T02:35:39.524Z,98619.56
2018-02-17T02:38:07.064Z,98622.78
2018-02-17T02:40:34.777Z,98622.44
2018-02-17T02:43:02.375Z,98620.86
2018-02-17T02:45:29.968Z,98621.77
2018-02-17T02:47:57.604Z,98643.15
2018-02-17T02:50:25.404Z,98647.14
2018-02-17T02:52:53.068Z,98651.10
2018-02-17T02:55:20.807Z,98637.97
2018-02-17T02:57:48.602Z,98643.08
2018-02-17T03:00:16.177Z,98636.66
2018-02-17T03:02:43.834Z,98619.56
2018-02-17T03:05:11.654Z,98615.97
2018-02-17T03:07:39.315Z,98618.50
2018-02-17T03:10:07.140Z,98620.64
2018-02-17T03:12:34.746Z,98605.14
2018-02-17T03:15:02.631Z,98599.98
2018-02-17T03:17:30.262Z,98590.41
2018-02-17T03:19:57.803Z,98578.38
2018-02-17T03:22:25.415Z,98577.50
2018-02-17T03:24:52.959Z,98582.70
2018-02-17T03:27:20.661Z,98589.97
2018-02-17T03:29:48.300Z,98578.95
2018-02-17T03:32:15.832Z,98577.90
2018-02-17T03:34:43.371Z,98581.22
2018-02-17T03:37:11.115Z,98575.57
2018-02-17T03:39:39.490Z,98567.98
2018-02-17T03:42:07.087Z,98554.16
2018-02-17T03:44:34.760Z,98544.22
2018-02-17T03:47:02.408Z,98549.49
2018-02-17T03:49:30.165Z,98541.70
2018-02-17T03:51:57.935Z,98523.98
2018-02-17T03:54:25.615Z,98514.52
2018-02-17T03:56:53.268Z,98514.48
2018-02-17T03:59:21.038Z,98492.59
2018-02-17T04:01:48.702Z,98483.08
2018-02-17T04:04:16.325Z,98483.35
2018-02-17T04:06:43.943Z,98480.57
2018-02-17T04:09:12.386Z,98497.77
2018-02-17T04:11:39.978Z,98496.56
2018-02-17T04:14:07.601Z,98494.31
2018-02-17T04:16:35.170Z,98478.39
2018-02-17T04:19:02.777Z,98451.83
2018-02-17T04:21:30.371Z,98440.98
2018-02-17T04:23:58.049Z,98429.05
2018-02-17T04:26:26.369Z,98412.12
2018-02-17T04:28:54.498Z,98400.27
2018-02-17T04:31:22.143Z,98399.73
2018-02-17T04:33:49.784Z,98413.35
2018-02-17T04:36:17.322Z,98422.19
2018-02-17T04:38:45.129Z,98430.06
2018-02-17T04:41:24.884Z,98445.21
2018-02-17T04:43:58.141Z,98454.71
2018-02-17T04:46:31.441Z,98450.02
2018-02-17T04:49:09.058Z,98443.23
2018-02-17T04:51:38.845Z,98438.72
2018-02-17T04:57:10.167Z,98426.51
2018-02-17T04:59:55.884Z,98431.94
2018-02-17T05:05:33.833Z,98423.17
2018-02-17T05:08:13.513Z,98418.47
2018-02-17T05:10:41.095Z,98409.00
2018-02-17T05:13:08.728Z,98401.09
2018-02-17T05:18:38.918Z,98408.13
2018-02-17T05:24:26.141Z,98403.16
2018-02-17T05:29:57.725Z,98395.75
2018-02-17T05:32:30.294Z,98384.13
2018-02-17T05:38:00.303Z,98361.08
2018-02-17T05:40:37.937Z,98354.70
2018-02-17T05:43:05.543Z,98369.09
2018-02-17T05:45:37.592Z,98386.73
2018-02-17T05:48:06.204Z,98383.26
2018-02-17T05:50:34.242Z,98385.27
2018-02-17T05:53:02.046Z,98393.41
2018-02-17T05:55:29.679Z,98386.40
2018-02-17T05:57:57.339Z,98372.58
2018-02-17T06:00:24.885Z,98361.91
2018-02-17T06:02:52.536Z,98368.72
2018-02-17T06:05:20.069Z,98365.62
2018-02-17T06:07:47.903Z,98349.96
2018-02-17T06:10:15.526Z,98329.21
2018-02-17T06:12:43.829Z,98332.47
2018-02-17T06:15:11.701Z,98320.25
2018-02-17T06:17:39.287Z,98294.25
2018-02-17T06:20:07.091Z,98269.69
2018-02-17T06:22:34.725Z,98250.05
2018-02-17T06:25:02.348Z,98242.99
2018-02-17T06:27:30.666Z,98234.23
2018-02-17T06:29:58.190Z,98230.44
2018-02-17T06:32:25.749Z,98231.53
2018-02-17T06:34:53.385Z,98251.77
2018-02-17T06:37:20.960Z,98258.66
2018-02-17T06:39:48.660Z,98274.53
2018-02-17T06:42:16.233Z,98287.23
2018-02-17T06:44:43.885Z,98283.23
2018-02-17T06:47:11.419Z,98272.95
2018-02-17T06:49:39.086Z,98264.44
2018-02-17T06:52:06.611Z,98238.81
2018-02-17T06:54:34.307Z,98227.55
2018-02-17T06:57:01.870Z,98231.38
2018-02-17T06:59:29.559Z,98230.41
2018-02-17T07:01:57.459Z,98239.51
2018-02-17T07:04:25.055Z,98283.23
2018-02-17T07:06:52.606Z,98314.64
2018-02-17T07:09:20.134Z,98330.92
2018-02-17T07:11:47.723Z,98348.38
2018-02-17T07:14:15.303Z,98352.13
2018-02-17T07:16:42.917Z,98345.13
2018-02-17T07:19:10.563Z,98318.29
2018-02-17T07:21:38.166Z,98306.47
2018-02-17T07:24:05.713Z,98310.25
2018-02-17T07:26:33.366Z,98316.08
2018-02-17T07:29:00.899Z,98303.27
2018-02-17T07:31:28.647Z,98302.34
2018-02-17T07:33:57.071Z,98298.14
2018-02-17T07:36:24.607Z,98285.91
2018-02-17T07:38:52.143Z,98275.22
2018-02-17T07:41:19.887Z,98251.25
2018-02-17T07:43:48.253Z,98247.61
2018-02-17T07:46:15.793Z,98253.30
2018-02-17T07:48:44.148Z,98241.02
2018-02-17T07:51:11.892Z,98252.53
2018-02-17T07:53:39.426Z,98272.50
2018-02-17T07:56:06.963Z,98268.09
2018-02-17T07:58:35.166Z,98282.91
2018-02-17T08:01:02.807Z,98271.72
2018-02-17T08:03:30.479Z,98254.70
2018-02-17T08:05:58.138Z,98274.77
2018-02-17T08:08:25.674Z,98274.69
2018-02-17T08:10:53.278Z,98245.81
2018-02-17T08:13:21.138Z,98243.77
2018-02-17T08:15:48.767Z,98234.88
2018-02-17T08:18:16.380Z,98230.77
2018-02-17T08:20:43.908Z,98229.55
2018-02-17T08:23:12.179Z,98228.97
2018-02-17T08:25:40.005Z,98219.00
2018-02-17T08:28:07.589Z,98217.47
2018-02-17T08:30:35.195Z,98209.55
2018-02-17T08:33:02.897Z,98216.22
2018-02-17T08:35:31.367Z,98211.46
2018-02-17T08:37:59.103Z,98196.02
2018-02-17T08:40:26.732Z,98198.99
2018-02-17T08:42:54.388Z,98192.64
2018-02-17T08:45:22.166Z,98189.14
2018-02-17T08:47:49.862Z,98183.77
2018-02-17T08:50:17.685Z,98174.75
2018-02-17T08:52:45.227Z,98177.55
2018-02-17T08:55:12.934Z,98172.19
2018-02-17T08:57:40.717Z,98174.78
2018-02-17T09:00:08.314Z,98178.05
2018-02-17T09:02:35.860Z,98170.92
2018-02-17T09:05:03.596Z,98170.73
2018-02-17T09:07:31.285Z,98201.89
2018-02-17T09:09:59.096Z,98191.83
2018-02-17T09:12:26.790Z,98166.25
2018-02-17T09:14:54.319Z,98163.22
2018-02-17T09:17:21.981Z,98176.87
2018-02-17T09:19:49.516Z,98163.59
2018-02-17T09:22:17.136Z,98150.67
2018-02-17T09:24:44.801Z,98157.23
2018-02-17T09:27:12.319Z,98145.30
2018-02-17T09:29:39.919Z,98138.77
2018-02-17T09:32:07.655Z,98128.00
2018-02-17T09:34:35.261Z,98123.60
2018-02-17T09:37:02.830Z,98116.06
2018-02-17T09:39:30.396Z,98109.50
2018-02-17T09:41:58.135Z,98109.20
2018-02-17T09:44:26.017Z,98109.16
2018-02-17T09:46:53.613Z,98115.84
2018-02-17T09:49:21.390Z,98109.78
2018-02-17T09:51:49.586Z,98108.01
2018-02-17T09:54:17.238Z,98104.48
2018-02-17T09:56:45.075Z,98098.67
2018-02-17T09:59:13.276Z,98104.72
2018-02-17T10:01:41.336Z,98090.12
2018-02-17T10:04:09.117Z,98091.08
2018-02-17T10:06:36.648Z,98091.52
2018-02-17T10:09:04.627Z,98095.34
2018-02-17T10:11:32.235Z,98096.08
2018-02-17T10:14:00.506Z,98094.67
2018-02-17T10:16:28.205Z,98096.51
2018-02-17T10:18:55.731Z,98095.28
2018-02-17T10:21:23.276Z,98101.55
2018-02-17T10:23:50.896Z,98100.17
2018-02-17T10:26:18.822Z,98098.23
2018-02-17T10:28:46.435Z,98100.08
2018-02-17T10:31:14.057Z,98104.38
2018-02-17T10:33:41.940Z,98109.54
2018-02-17T10:36:09.528Z,98121.45
2018-02-17T10:38:37.410Z,98118.09
2018-02-17T10:41:05.302Z,98133.30
2018-02-17T10:43:32.928Z,98135.72
2018-02-17T10:46:00.533Z,98141.63
2018-02-17T10:48:28.130Z,98144.83
2018-02-17T10:50:55.842Z,98149.75
2018-02-17T10:53:23.595Z,98151.05
2018-02-17T10:55:51.303Z,98146.93
2018-02-17T10:58:18.844Z,98148.36
2018-02-17T11:00:46.431Z,98143.69
2018-02-17T11:03:14.083Z,98146.09
2018-02-17T11:05:41.704Z,98145.80
2018-02-17T11:08:09.230Z,98151.08
2018-02-17T11:10:37.546Z,98150.28
2018-02-17T11:13:10.391Z,98150.41
2018-02-17T11:15:43.668Z,98151.91
2018-02-17T11:18:11.298Z,98155.79
2018-02-17T11:20:39.256Z,98151.23
2018-02-17T11:23:07.191Z,98155.59
2018-02-17T11:25:34.766Z,98155.75
2018-02-17T11:28:02.339Z,98163.70
2018-02-17T11:30:30.046Z,98158.94
2018-02-17T11:32:57.916Z,98148.86
2018-02-17T11:35:25.466Z,98158.81
2018-02-17T11:37:53.015Z,98160.63
2018-02-17T11:40:21.741Z,98163.63
2018-02-17T11:42:49.304Z,98151.05
2018-02-17T11:45:17.050Z,98148.10
2018-02-17T11:47:44.674Z,98152.02
2018-02-17T11:50:12.564Z,98155.51
2018-02-17T11:52:40.089Z,98147.72
2018-02-17T11:55:07.671Z,98144.61
2018-02-17T11:57:36.137Z,98142.73
2018-02-17T12:00:03.863Z,98145.88
2018-02-17T12:02:33.181Z,98144.17
2018-02-17T12:05:00.776Z,98138.98
2018-02-17T12:07:28.562Z,98145.21
2018-02-17T12:09:56.301Z,98145.19
2018-02-17T12:12:23.968Z,98140.97
2018-02-17T12:14:51.803Z,98141.51
2018-02-17T12:17:19.514Z,98142.39
2018-02-17T12:19:47.178Z,98141.95
2018-02-17T12:22:14.773Z,98144.16
2018-02-17T12:24:42.486Z,98145.34
2018-02-17T12:27:10.467Z,98140.31
2018-02-17T12:29:38.132Z,98131.33
2018-02-17T12:32:05.760Z,98120.25
2018-02-17T12:34:33.565Z,98114.64
2018-02-17T12:37:01.257Z,98107.58
2018-02-17T12:39:29.524Z,98112.01
2018-02-17T12:41:57.109Z,98108.71
2018-02-17T12:44:24.865Z,98104.45
2018-02-17T12:46:52.697Z,98108.89
2018-02-17T12:49:20.209Z,98107.70
2018-02-17T12:51:47.884Z,98109.22
2018-02-17T12:54:15.453Z,98112.84
2018-02-17T12:56:43.024Z,98108.47
2018-02-17T12:59:10.924Z,98098.28
2018-02-17T13:01:38.603Z,98093.66
2018-02-17T13:04:06.275Z,98097.83
2018-02-17T13:06:34.148Z,98096.53
2018-02-17T13:09:01.663Z,98105.25
2018-02-17T13:11:29.426Z,98102.92
2018-02-17T13:13:56.958Z,98093.00
2018-02-17T13:16:24.523Z,98105.49
2018-02-17T13:18:52.052Z,98106.70
2018-02-17T13:21:19.586Z,98111.81
2018-02-17T13:23:47.224Z,98110.70
2018-02-17T13:26:15.107Z,98106.20
2018-02-17T13:28:42.695Z,98109.42
2018-02-17T13:31:11.278Z,98108.30
2018-02-17T13:33:38.942Z,98105.67
2018-02-17T13:36:06.516Z,98107.97
2018-02-17T13:38:34.104Z,98105.00
2018-02-17T13:41:01.732Z,98115.60
2018-02-17T13:43:29.314Z,98114.31
2018-02-17T13:45:56.914Z,98112.59
2018-02-17T13:48:24.459Z,98122.38
2018-02-17T13:50:52.207Z,98134.03
2018-02-17T13:53:20.494Z,98132.23
2018-02-17T13:55:48.123Z,98132.10
2018-02-17T13:58:15.750Z,98120.34
2018-02-17T14:00:43.798Z,98122.55
2018-02-17T14:03:12.322Z,98123.61
2018-02-17T14:05:40.208Z,98132.92
2018-02-17T14:08:07.874Z,98136.05
2018-02-17T14:10:35.528Z,98137.61
2018-02-17T14:13:03.352Z,98145.40
2018-02-17T14:15:30.996Z,98144.95
2018-02-17T14:17:58.562Z,98142.61
2018-02-17T14:20:26.388Z,98148.01
2018-02-17T14:22:53.997Z,98152.61
2018-02-17T14:25:21.662Z,98150.04
2018-02-17T14:27:49.478Z,98149.14
2018-02-17T14:30:17.089Z,98153.05
2018-02-17T14:32:44.748Z,98149.01
2018-02-17T14:35:12.569Z,98161.40
2018-02-17T14:37:40.123Z,98159.17
2018-02-17T14:40:07.704Z,98158.06
2018-02-17T14:42:35.327Z,98152.90
2018-02-17T14:45:03.063Z,98153.20
2018-02-17T14:47:30.922Z,98165.98
2018-02-17T14:49:58.664Z,98168.25
2018-02-17T14:52:27.114Z,98179.34
2018-02-17T14:54:54.898Z,98176.53
2018-02-17T14:57:22.593Z,98183.28
2018-02-17T14:59:50.261Z,98188.19
2018-02-17T15:02:17.963Z,98193.11
2018-02-17T15:04:45.543Z,98196.20
2018-02-17T15:07:13.997Z,98197.17
2018-02-17T15:09:41.538Z,98200.34
2018-02-17T15:12:09.193Z,98210.28
2018-02-17T15:14:36.740Z,98219.04
2018-02-17T15:17:04.470Z,98223.92
2018-02-17T15:19:32.019Z,98224.75
2018-02-17T15:21:59.729Z,98212.56
2018-02-17T15:24:27.283Z,98212.01
2018-02-17T15:26:55.118Z,98214.23
2018-02-17T15:29:22.932Z,98209.87
2018-02-17T15:31:50.690Z,98215.64
2018-02-17T15:34:18.355Z,98231.42
2018-02-17T15:36:45.879Z,98229.89
2018-02-17T15:39:13.692Z,98227.50
2018-02-17T15:41:41.249Z,98236.34
2018-02-17T15:44:09.062Z,98236.18
2018-02-17T15:46:36.874Z,98242.63
2018-02-17T15:49:04.593Z,98243.20
2018-02-17T15:51:32.299Z,98242.73
2018-02-17T15:54:00.024Z,98246.32
2018-02-17T15:56:27.819Z,98252.98
2018-02-17T15:58:55.468Z,98255.34
2018-02-17T16:01:23.504Z,98256.06
2018-02-17T16:03:51.049Z,98264.20
2018-02-17T16:06:18.743Z,98262.77
2018-02-17T16:08:46.323Z,98272.00
2018-02-17T16:11:14.010Z,98278.87
2018-02-17T16:13:41.893Z,98281.55
2018-02-17T16:16:09.664Z,98280.63
2018-02-17T16:18:37.258Z,98283.81
2018-02-17T16:21:05.084Z,98279.51
2018-02-17T16:23:32.712Z,98284.08
2018-02-17T16:26:00.294Z,98290.17
2018-02-17T16:28:27.908Z,98287.40
2018-02-17T16:30:55.466Z,98301.22
2018-02-17T16:33:23.493Z,98299.55
2018-02-17T16:35:51.316Z,98315.58
2018-02-17T16:38:18.991Z,98322.42
2018-02-17T16:40:46.575Z,98326.50
2018-02-17T16:43:14.429Z,98327.44
2018-02-17T16:45:42.124Z,98335.92
2018-02-17T16:48:09.656Z,98333.94
2018-02-17T16:50:37.196Z,98342.77
2018-02-17T16:53:05.413Z,98345.42
2018-02-17T16:55:33.434Z,98354.02
2018-02-17T16:58:01.620Z,98362.96
2018-02-17T17:00:29.166Z,98362.89
2018-02-17T17:02:56.830Z,98373.77
2018-02-17T17:05:24.859Z,98377.53
2018-02-17T17:07:52.520Z,98381.47
2018-02-17T17:10:20.164Z,98372.94
2018-02-17T17:12:48.524Z,98382.53
2018-02-17T17:15:16.427Z,98384.71
2018-02-17T17:17:44.059Z,98401.44
2018-02-17T17:20:11.712Z,98403.16
2018-02-17T17:22:39.362Z,98414.84
2018-02-17T17:25:06.975Z,98417.87
2018-02-17T17:27:34.786Z,98422.78
2018-02-17T17:30:03.357Z,98422.61
2018-02-17T17:32:31.287Z,98417.86
2018-02-17T17:35:00.022Z,98425.41
2018-02-17T17:37:28.199Z,98421.92
2018-02-17T17:39:55.793Z,98424.16
2018-02-17T17:42:23.649Z,98430.21
2018-02-17T17:44:52.079Z,98433.17
2018-02-17T17:47:19.689Z,98435.86
2018-02-17T17:49:47.286Z,98440.67
2018-02-17T17:52:14.948Z,98451.22
2018-02-17T17:54:42.775Z,98463.73
2018-02-17T17:57:10.421Z,98458.03
2018-02-17T17:59:38.005Z,98467.20
2018-02-17T18:02:05.669Z,98465.64
2018-02-17T18:04:33.643Z,98465.88
2018-02-17T18:07:01.588Z,98472.53
2018-02-17T18:09:29.481Z,98473.95
2018-02-17T18:11:57.296Z,98475.44
2018-02-17T18:14:24.887Z,98478.03
2018-02-17T18:16:52.611Z,98472.04
2018-02-17T18:19:20.548Z,98484.00
2018-02-17T18:21:48.121Z,98487.39
2018-02-17T18:24:15.894Z,98495.73
2018-02-17T18:26:43.522Z,98504.12
2018-02-17T18:29:11.204Z,98502.22
2018-02-17T18:31:38.959Z,98507.70
2018-02-17T18:34:06.504Z,98515.67
2018-02-17T18:36:34.367Z,98515.60
2018-02-17T18:39:01.970Z,98519.15
2018-02-17T18:41:29.730Z,98530.70
2018-02-17T18:43:57.425Z,98529.94
2018-02-17T18:46:25.204Z,98535.61
2018-02-17T18:48:52.758Z,98533.73
2018-02-17T18:51:20.370Z,98547.67
2018-02-17T18:53:48.775Z,98552.45
2018-02-17T18:56:16.339Z,98552.47
2018-02-17T18:58:43.930Z,98550.56
2018-02-17T19:01:11.657Z,98556.23
2018-02-17T19:03:39.320Z,98553.64
2018-02-17T19:06:06.968Z,98555.28
2018-02-17T19:08:34.552Z,98558.27
2018-02-17T19:11:03.376Z,98554.81
2018-02-17T19:13:31.060Z,98553.25
2018-02-17T19:15:58.882Z,98552.52
2018-02-17T19:18:26.719Z,98556.09
2018-02-17T19:20:54.330Z,98556.89
2018-02-17T19:23:21.857Z,98553.33
2018-02-17T19:25:49.471Z,98550.81
2018-02-17T19:28:17.327Z,98560.75
2018-02-17T19:30:45.088Z,98559.92
2018-02-17T19:33:12.919Z,98563.88
2018-02-17T19:35:40.619Z,98563.52
2018-02-17T19:38:08.174Z,98562.12
2018-02-17T19:40:35.788Z,98569.14
2018-02-17T19:43:03.391Z,98573.73
2018-02-17T19:45:30.941Z,98572.27
2018-02-17T19:47:58.489Z,98572.09
2018-02-17T19:50:26.143Z,98581.34
2018-02-17T19:52:53.684Z,98581.45
2018-02-17T19:55:21.279Z,98584.64
2018-02-17T19:57:48.861Z,98583.19
2018-02-17T20:00:16.409Z,98584.25
2018-02-17T20:02:44.155Z,98582.69
2018-02-17T20:05:11.759Z,98588.02
2018-02-17T20:07:39.311Z,98592.13
2018-02-17T20:10:06.920Z,98592.61
2018-02-17T20:12:34.771Z,98598.44
2018-02-17T20:15:02.301Z,98600.10
2018-02-17T20:17:29.850Z,98610.83
2018-02-17T20:19:57.500Z,98610.92
2018-02-17T20:22:25.360Z,98611.11
2018-02-17T20:24:53.141Z,98621.48
2018-02-17T20:27:20.755Z,98618.16
2018-02-17T20:29:48.449Z,98626.48
2018-02-17T20:32:16.058Z,98626.89
2018-02-17T20:34:44.376Z,98628.22
2018-02-17T20:37:12.279Z,98628.66
2018-02-17T20:39:39.875Z,98635.28
2018-02-17T20:42:07.480Z,98639.70
2018-02-17T20:44:35.003Z,98643.13
2018-02-17T20:47:03.135Z,98639.65
2018-02-17T20:49:30.688Z,98638.83
2018-02-17T20:51:58.521Z,98641.14
2018-02-17T20:54:26.198Z,98646.29
2018-02-17T20:56:54.039Z,98649.93
2018-02-17T20:59:21.587Z,98645.98
2018-02-17T21:01:49.319Z,98656.52
2018-02-17T21:04:17.118Z,98653.38
2018-02-17T21:06:44.762Z,98663.84
2018-02-17T21:09:12.309Z,98665.18
2018-02-17T21:11:39.906Z,98666.16
2018-02-17T21:14:07.565Z,98670.84
2018-02-17T21:16:35.150Z,98674.41
2018-02-17T21:19:02.791Z,98668.59
2018-02-17T21:21:30.415Z,98672.81
2018-02-17T21:23:58.131Z,98682.05
2018-02-17T21:26:25.850Z,98682.31
2018-02-17T21:28:53.545Z,98679.12
2018-02-17T21:31:21.143Z,98691.05
2018-02-17T21:33:48.688Z,98691.37
2018-02-17T21:36:16.273Z,98698.44
2018-02-17T21:38:43.890Z,98706.47
2018-02-17T21:41:11.416Z,98716.09
2018-02-17T21:43:39.825Z,98725.81
2018-02-17T21:46:07.386Z,98724.27
2018-02-17T21:48:35.074Z,98720.73
2018-02-17T21:51:02.928Z,98724.86
2018-02-17T21:53:30.473Z,98722.74
2018-02-17T21:55:58.078Z,98724.83
2018-02-17T21:58:25.718Z,98729.06
2018-02-17T22:00:54.169Z,98730.47
2018-02-17T22:03:21.705Z,98736.74
2018-02-17T22:05:49.384Z,98736.22
2018-02-17T22:08:16.925Z,98737.05
2018-02-17T22:10:44.449Z,98740.98
2018-02-17T22:13:12.190Z,98742.70
2018-02-17T22:15:39.749Z,98748.57
2018-02-17T22:18:07.560Z,98753.09
2018-02-17T22:20:35.320Z,98759.66
2018-02-17T22:23:02.899Z,98760.17
2018-02-17T22:25:30.585Z,98763.16
2018-02-17T22:27:58.119Z,98771.40
2018-02-17T22:30:25.794Z,98768.24
2018-02-17T22:32:53.694Z,98768.08
2018-02-17T22:35:21.297Z,98770.23
2018-02-17T22:37:48.974Z,98769.57
2018-02-17T22:40:16.655Z,98773.67
2018-02-17T22:42:44.318Z,98778.28
2018-02-17T22:45:11.989Z,98773.58
2018-02-17T22:47:39.864Z,98777.95
2018-02-17T22:50:07.458Z,98778.17
2018-02-17T22:52:35.780Z,98781.53
2018-02-17T22:55:03.458Z,98782.59
2018-02-17T22:57:31.076Z,98780.70
2018-02-17T22:59:58.701Z,98779.70
2018-02-17T23:02:26.411Z,98784.99
2018-02-17T23:04:53.940Z,98787.00
2018-02-17T23:07:21.513Z,98788.78
2018-02-17T23:09:49.224Z,98791.36
2018-02-17T23:12:17.088Z,98795.03
2018-02-17T23:14:44.709Z,98786.11
2018-02-17T23:17:12.455Z,98788.86
2018-02-17T23:19:40.151Z,98787.55
2018-02-17T23:22:07.874Z,98792.47
2018-02-17T23:24:35.490Z,98790.26
2018-02-17T23:27:03.111Z,98796.56
2018-02-17T23:29:30.858Z,98804.30
2018-02-17T23:31:58.411Z,98807.83
2018-02-17T23:34:25.918Z,98806.13
2018-02-17T23:36:53.460Z,98802.73
2018-02-17T23:39:21.088Z,98816.08
2018-02-17T23:41:48.970Z,98814.67
2018-02-17T23:44:16.518Z,98820.63
2018-02-17T23:46:44.273Z,98818.52
2018-02-17T23:49:12.032Z,98825.02
2018-02-17T23:51:39.695Z,98831.17
2018-02-17T23:54:07.506Z,98831.58
2018-02-17T23:56:35.220Z,98831.02
2018-02-17T23:59:02.873Z,98830.61
